createdAt,value
2018-03-17T10:36:51.966Z,-2.00
2018-03-17T10:38:01.115Z,-2.03
2018-03-17T10:39:48.457Z,-2.09
2018-03-17T10:42:11.864Z,-2.06
2018-03-17T10:43:11.955Z,-1.96
2018-03-17T10:45:34.879Z,-1.98
2018-03-17T10:47:58.491Z,-2.04
2018-03-17T10:50:20.901Z,-1.97
2018-03-17T10:53:15.102Z,-1.97
2018-03-17T10:55:40.495Z,-1.91
2018-03-17T10:58:00.907Z,-1.83
2018-03-17T11:00:25.582Z,-1.86
2018-03-17T11:02:47.233Z,-1.86
2018-03-17T11:03:56.001Z,-1.80
2018-03-17T11:05:44.883Z,-1.91
2018-03-17T11:06:51.753Z,-1.78
2018-03-17T11:08:36.894Z,-1.73
2018-03-17T11:11:02.647Z,-1.67
2018-03-17T11:13:25.929Z,-1.72
2018-03-17T11:14:26.753Z,-1.80
2018-03-17T11:16:49.251Z,-1.83
2018-03-17T11:17:50.705Z,-1.82
2018-03-17T11:20:12.142Z,-1.93
2018-03-17T11:22:40.054Z,-1.80
2018-03-17T11:25:02.498Z,-1.80
2018-03-17T11:26:13.969Z,-1.82
2018-03-17T11:28:24.846Z,-1.62
2018-03-17T11:29:34.854Z,-1.52
2018-03-17T11:31:19.872Z,-1.55
2018-03-17T11:33:42.428Z,-1.59
2018-03-17T11:36:05.164Z,-1.75
2018-03-17T11:37:05.239Z,-1.76
2018-03-17T11:38:05.156Z,-1.72
2018-03-17T11:39:04.963Z,-1.75
2018-03-17T11:40:04.755Z,-1.82
2018-03-17T11:42:28.638Z,-1.79
2018-03-17T11:43:27.716Z,-1.85
2018-03-17T11:44:36.963Z,-1.86
2018-03-17T11:46:23.773Z,-1.88
2018-03-17T11:48:47.498Z,-1.80
2018-03-17T11:49:47.556Z,-1.79
2018-03-17T11:52:11.252Z,-1.76
2018-03-17T11:53:11.129Z,-1.85
2018-03-17T11:55:33.412Z,-1.83
2018-03-17T11:56:32.398Z,-1.85
2018-03-17T11:57:32.238Z,-1.85
2018-03-17T12:00:01.372Z,-1.76
2018-03-17T12:02:20.241Z,-1.79
2018-03-17T12:03:28.265Z,-1.76
2018-03-17T12:05:14.478Z,-1.75
2018-03-17T12:07:38.494Z,-1.67
2018-03-17T12:08:50.571Z,-1.59
2018-03-17T12:10:34.410Z,-1.57
2018-03-17T12:11:32.306Z,-1.72
2018-03-17T12:12:33.285Z,-1.70
2018-03-17T12:14:55.534Z,-1.59
2018-03-17T12:15:54.910Z,-1.64
2018-03-17T12:18:17.104Z,-1.85
2018-03-17T12:20:39.640Z,-1.91
2018-03-17T12:21:39.548Z,-1.94
2018-03-17T12:24:03.988Z,-1.78
2018-03-17T12:26:28.113Z,-1.73
2018-03-17T12:28:51.684Z,-1.91
2018-03-17T12:31:44.633Z,-1.79
2018-03-17T12:32:44.540Z,-1.93
2018-03-17T12:35:08.567Z,-2.00
2018-03-17T12:36:10.240Z,-1.98
2018-03-17T12:38:30.948Z,-2.08
2018-03-17T12:40:53.323Z,-2.03
2018-03-17T12:43:24.741Z,-2.00
2018-03-17T12:44:17.369Z,-1.82
2018-03-17T12:45:16.058Z,-1.90
2018-03-17T12:47:39.688Z,-1.90
2018-03-17T12:48:39.594Z,-1.82
2018-03-17T12:51:02.192Z,-1.80
2018-03-17T12:53:25.785Z,-1.83
2018-03-17T12:54:34.391Z,-1.78
2018-03-17T12:56:22.213Z,-1.93
2018-03-17T12:57:21.109Z,-1.94
2018-03-17T12:58:22.289Z,-1.98
2018-03-17T12:59:30.241Z,-2.00
2018-03-17T13:01:16.708Z,-1.97
2018-03-17T13:03:38.896Z,-1.90
2018-03-17T13:04:47.361Z,-1.93
2018-03-17T13:07:01.678Z,-2.00
2018-03-17T13:08:01.848Z,-2.01
2018-03-17T13:10:25.634Z,-1.86
2018-03-17T13:11:27.118Z,-1.83
2018-03-17T13:13:48.938Z,-1.88
2018-03-17T13:16:12.251Z,-1.79
2018-03-17T13:17:12.712Z,-1.83
2018-03-17T13:19:37.147Z,-2.12
2018-03-17T13:22:00.721Z,-2.03
2018-03-17T13:23:02.046Z,-2.01
2018-03-17T13:25:23.251Z,-2.00
2018-03-17T13:27:47.978Z,-1.94
